createdAt,value
2022-09-23T00:01:14.233Z,6.70
2022-09-23T00:03:42.657Z,6.20
2022-09-23T00:06:12.322Z,6.57
2022-09-23T00:08:40.405Z,5.85
2022-09-23T00:11:16.384Z,6.20
2022-09-23T00:13:45.093Z,5.83
2022-09-23T00:16:15.007Z,6.80
2022-09-23T00:18:42.518Z,6.78
2022-09-23T00:21:11.963Z,6.43
2022-09-23T00:23:40.693Z,6.50
2022-09-23T00:26:09.102Z,6.83
2022-09-23T00:28:36.604Z,5.85
2022-09-23T00:31:05.577Z,6.78
2022-09-23T00:33:32.850Z,6.28
2022-09-23T00:36:05.940Z,6.22
2022-09-23T00:38:34.015Z,6.40
2022-09-23T00:41:01.593Z,6.50
2022-09-23T00:43:58.647Z,6.03
2022-09-23T00:46:31.020Z,6.60
2022-09-23T00:49:10.949Z,6.70
2022-09-23T00:51:41.610Z,6.50
2022-09-23T00:54:09.106Z,6.85
2022-09-23T00:56:39.330Z,6.93
2022-09-23T00:59:09.610Z,6.70
2022-09-23T01:01:37.683Z,7.28
2022-09-23T01:04:06.954Z,5.70
2022-09-23T01:06:34.186Z,6.50
2022-09-23T01:09:01.418Z,6.85
2022-09-23T01:11:38.124Z,6.50
2022-09-23T01:14:13.761Z,6.40
2022-09-23T01:16:58.793Z,5.93
2022-09-23T01:19:43.498Z,7.20
2022-09-23T01:22:22.854Z,6.82
2022-09-23T01:25:05.483Z,6.53
2022-09-23T01:27:59.445Z,6.15
2022-09-23T01:31:04.165Z,6.97
2022-09-23T01:33:32.010Z,5.95
2022-09-23T01:35:59.193Z,6.15
2022-09-23T01:38:26.371Z,5.95
2022-09-23T01:41:25.612Z,5.78
2022-09-23T01:43:52.745Z,5.60
2022-09-23T01:46:58.668Z,5.82
2022-09-23T01:49:32.503Z,5.38
2022-09-23T01:52:10.042Z,6.30
2022-09-23T01:54:42.230Z,6.30
2022-09-23T01:57:18.814Z,5.70
2022-09-23T01:59:51.015Z,6.18
2022-09-23T02:02:21.971Z,6.53
2022-09-23T02:05:02.328Z,5.88
2022-09-23T02:07:44.994Z,7.15
2022-09-23T02:10:14.095Z,5.00
2022-09-23T02:12:43.998Z,5.63
2022-09-23T02:15:15.607Z,6.15
2022-09-23T02:18:10.072Z,6.32
2022-09-23T02:20:39.760Z,6.43
2022-09-23T02:23:13.267Z,6.37
2022-09-23T02:26:04.986Z,6.78
2022-09-23T02:28:52.495Z,6.68
2022-09-23T02:31:20.028Z,6.80
2022-09-23T02:33:58.725Z,6.53
2022-09-23T02:36:32.244Z,6.33
2022-09-23T02:39:08.706Z,6.70
2022-09-23T02:41:51.490Z,6.78
2022-09-23T02:44:20.496Z,7.28
2022-09-23T02:46:50.378Z,7.03
2022-09-23T02:49:23.276Z,6.70
2022-09-23T02:51:51.143Z,6.28
2022-09-23T02:54:37.401Z,6.97
2022-09-23T02:57:06.358Z,7.18
2022-09-23T02:59:34.260Z,7.47
2022-09-23T03:02:21.844Z,7.30
2022-09-23T03:05:18.155Z,7.95
2022-09-23T03:08:18.915Z,8.02
2022-09-23T03:11:13.460Z,7.78
2022-09-23T03:14:19.774Z,7.40
2022-09-23T03:17:01.458Z,5.87
2022-09-23T03:19:47.773Z,7.20
2022-09-23T03:22:25.005Z,7.40
2022-09-23T03:24:54.447Z,7.57
2022-09-23T03:27:26.724Z,7.40
2022-09-23T03:29:55.017Z,7.30
2022-09-23T03:32:27.848Z,8.52
2022-09-23T03:34:57.660Z,8.32
2022-09-23T03:37:47.729Z,9.13
2022-09-23T03:40:29.843Z,9.55
2022-09-23T03:42:57.676Z,8.83
2022-09-23T03:45:29.652Z,8.75
2022-09-23T03:47:56.479Z,9.52
2022-09-23T03:50:23.704Z,8.70
2022-09-23T03:52:50.954Z,8.55
2022-09-23T03:55:19.467Z,8.83
2022-09-23T03:57:46.590Z,9.15
2022-09-23T04:00:14.671Z,8.75
2022-09-23T04:02:42.260Z,8.93
2022-09-23T04:05:10.413Z,8.13
2022-09-23T04:07:37.623Z,8.40
2022-09-23T04:10:05.885Z,8.80
2022-09-23T04:12:33.034Z,8.00
2022-09-23T04:15:00.399Z,7.97
2022-09-23T04:17:27.651Z,7.78
2022-09-23T04:19:54.861Z,9.57
2022-09-23T04:22:22.356Z,9.70
2022-09-23T04:24:49.567Z,8.93
2022-09-23T04:27:16.875Z,9.90
2022-09-23T04:29:44.427Z,28.30
2022-09-23T04:32:11.753Z,10.27
2022-09-23T04:34:38.482Z,9.80
2022-09-23T04:37:05.242Z,9.93
2022-09-23T04:39:32.749Z,9.05
2022-09-23T04:41:59.940Z,9.73
2022-09-23T04:44:28.283Z,9.87
2022-09-23T04:46:55.567Z,8.32
2022-09-23T04:49:23.545Z,10.15
2022-09-23T04:51:50.858Z,11.40
2022-09-23T04:54:19.022Z,10.02
2022-09-23T04:56:46.274Z,10.27
2022-09-23T04:59:13.438Z,11.13
2022-09-23T05:01:40.844Z,11.07
2022-09-23T05:04:13.777Z,11.57
2022-09-23T05:06:43.985Z,11.25
2022-09-23T05:09:16.206Z,9.30
2022-09-23T05:11:43.678Z,11.30
2022-09-23T05:14:10.967Z,12.00
2022-09-23T05:16:37.793Z,12.57
2022-09-23T05:19:05.448Z,12.00
2022-09-23T05:21:32.800Z,11.57
2022-09-23T05:24:00.777Z,11.70
2022-09-23T05:26:30.133Z,10.45
2022-09-23T05:28:58.035Z,10.93
2022-09-23T05:31:27.364Z,11.02
2022-09-23T05:33:59.507Z,12.27
2022-09-23T05:36:28.058Z,11.85
2022-09-23T05:38:57.421Z,12.63
2022-09-23T05:41:25.951Z,11.73
2022-09-23T05:43:54.705Z,12.35
2022-09-23T05:46:30.368Z,11.50
2022-09-23T05:49:08.160Z,10.70
2022-09-23T05:51:35.941Z,11.80
2022-09-23T05:54:04.281Z,10.75
2022-09-23T05:56:32.808Z,11.43
2022-09-23T05:59:01.361Z,11.47
2022-09-23T06:01:32.146Z,11.10
2022-09-23T06:04:00.334Z,11.75
2022-09-23T06:06:34.918Z,11.40
2022-09-23T06:09:02.609Z,9.32
2022-09-23T06:11:34.138Z,8.23
2022-09-23T06:14:02.432Z,9.65
2022-09-23T06:16:31.861Z,13.77
2022-09-23T06:19:05.961Z,11.82
2022-09-23T06:21:35.244Z,9.85
2022-09-23T06:24:03.166Z,12.10
2022-09-23T06:26:33.619Z,10.82
2022-09-23T06:29:01.697Z,11.40
2022-09-23T06:31:29.163Z,10.55
2022-09-23T06:34:08.053Z,10.68
2022-09-23T06:36:44.046Z,9.57
2022-09-23T06:39:12.665Z,11.82
2022-09-23T06:41:43.782Z,10.85
2022-09-23T06:44:14.627Z,10.68
2022-09-23T06:46:42.171Z,10.98
2022-09-23T06:49:09.629Z,10.10
2022-09-23T06:51:36.850Z,11.60
2022-09-23T06:54:04.450Z,11.35
2022-09-23T06:56:34.831Z,12.10
2022-09-23T06:59:05.404Z,11.07
2022-09-23T07:01:33.406Z,11.47
2022-09-23T07:04:01.746Z,11.75
2022-09-23T07:06:29.043Z,10.48
2022-09-23T07:08:56.255Z,11.77
2022-09-23T07:11:23.681Z,11.95
2022-09-23T07:13:50.968Z,11.70
2022-09-23T07:16:18.244Z,11.52
2022-09-23T07:18:45.714Z,12.93
2022-09-23T07:21:15.559Z,12.05
2022-09-23T07:23:44.649Z,12.15
2022-09-23T07:26:11.833Z,10.90
2022-09-23T07:28:39.275Z,10.63
2022-09-23T07:31:12.027Z,11.68
2022-09-23T07:33:44.102Z,10.93
2022-09-23T07:36:13.962Z,11.75
2022-09-23T07:38:45.174Z,11.00
2022-09-23T07:41:15.543Z,10.65
2022-09-23T07:43:44.044Z,12.32
2022-09-23T07:46:14.543Z,11.65
2022-09-23T07:48:41.614Z,11.50
2022-09-23T07:51:12.463Z,10.10
2022-09-23T07:53:40.145Z,11.48
2022-09-23T07:56:07.528Z,10.52
2022-09-23T07:58:35.112Z,11.45
2022-09-23T08:01:07.338Z,11.38
2022-09-23T08:03:35.155Z,10.10
2022-09-23T08:06:14.010Z,11.25
2022-09-23T08:08:44.521Z,10.75
2022-09-23T08:11:14.173Z,9.98
2022-09-23T08:13:41.572Z,9.52
2022-09-23T08:16:11.328Z,9.50
2022-09-23T08:18:38.538Z,9.93
2022-09-23T08:21:05.808Z,9.63
2022-09-23T08:23:33.886Z,10.07
2022-09-23T08:26:02.463Z,10.48
2022-09-23T08:28:29.973Z,10.20
2022-09-23T08:30:57.369Z,9.80
2022-09-23T08:33:24.643Z,9.52
2022-09-23T08:35:52.618Z,8.80
2022-09-23T08:38:20.687Z,9.55
2022-09-23T08:40:49.822Z,8.60
2022-09-23T08:43:29.850Z,8.70
2022-09-23T08:46:00.268Z,8.77
2022-09-23T08:48:34.722Z,9.27
2022-09-23T08:51:11.061Z,8.73
2022-09-23T08:53:38.604Z,15.53
2022-09-23T08:56:14.688Z,9.23
2022-09-23T08:59:05.160Z,9.50
2022-09-23T09:01:51.876Z,9.43
2022-09-23T09:04:20.694Z,8.75
2022-09-23T09:06:54.343Z,8.97
2022-09-23T09:09:55.101Z,8.88
2022-09-23T09:12:44.900Z,9.60
2022-09-23T09:15:18.753Z,9.15
2022-09-23T09:17:48.400Z,9.23
2022-09-23T09:20:18.881Z,9.50
2022-09-23T09:23:16.846Z,9.45
2022-09-23T09:26:02.978Z,9.13
2022-09-23T09:28:41.684Z,8.75
2022-09-23T09:31:39.894Z,10.00
2022-09-23T09:34:41.215Z,9.43
2022-09-23T09:37:31.752Z,9.20
2022-09-23T09:39:59.099Z,10.13
2022-09-23T09:42:45.025Z,9.55
2022-09-23T09:45:24.115Z,9.40
2022-09-23T09:48:10.806Z,9.13
2022-09-23T09:50:51.927Z,8.48
2022-09-23T09:53:32.111Z,8.98
2022-09-23T09:56:05.633Z,10.50
2022-09-23T09:58:35.070Z,9.10
2022-09-23T10:01:02.100Z,8.43
2022-09-23T10:03:39.440Z,8.70
2022-09-23T10:06:35.852Z,9.07
2022-09-23T10:09:03.111Z,8.30
2022-09-23T10:11:30.727Z,9.18
2022-09-23T10:14:00.541Z,8.57
2022-09-23T10:16:28.183Z,9.98
2022-09-23T10:18:57.181Z,9.18
2022-09-23T10:21:27.889Z,8.30
2022-09-23T10:23:58.568Z,8.43
2022-09-23T10:26:33.051Z,8.17
2022-09-23T10:29:29.999Z,7.80
2022-09-23T10:32:40.028Z,8.45
2022-09-23T10:35:09.572Z,8.23
2022-09-23T10:37:39.697Z,8.15
2022-09-23T10:40:57.700Z,7.63
2022-09-23T10:44:30.007Z,7.35
2022-09-23T10:47:16.277Z,7.78
2022-09-23T10:50:08.172Z,8.55
2022-09-23T10:52:46.451Z,7.13
2022-09-23T10:55:41.705Z,8.30
2022-09-23T10:58:52.576Z,10.93
2022-09-23T11:01:19.788Z,7.00
2022-09-23T11:04:19.277Z,14.95
2022-09-23T11:06:59.622Z,22.17
2022-09-23T11:09:41.382Z,6.50
2022-09-23T11:12:21.327Z,5.40
2022-09-23T11:15:00.854Z,6.10
2022-09-23T11:18:08.375Z,6.28
2022-09-23T11:20:54.507Z,6.07
2022-09-23T11:23:37.205Z,5.27
2022-09-23T11:26:07.144Z,5.00
2022-09-23T11:28:54.989Z,5.25
2022-09-23T11:31:34.385Z,5.10
2022-09-23T11:34:08.140Z,9.52
2022-09-23T11:36:50.369Z,5.60
2022-09-23T11:39:28.015Z,5.20
2022-09-23T11:41:59.269Z,5.50
2022-09-23T11:44:51.813Z,5.22
2022-09-23T11:47:23.907Z,5.32
2022-09-23T11:49:58.945Z,5.70
2022-09-23T11:52:39.962Z,5.63
2022-09-23T11:55:22.620Z,5.05
2022-09-23T11:58:05.723Z,5.97
2022-09-23T12:00:39.089Z,5.20
2022-09-23T12:03:06.829Z,5.00
2022-09-23T12:05:41.944Z,5.10
2022-09-23T12:08:32.427Z,5.43
2022-09-23T12:10:59.702Z,5.28
2022-09-23T12:13:45.105Z,4.43
2022-09-23T12:16:58.990Z,4.40
2022-09-23T12:20:02.971Z,4.53
2022-09-23T12:22:36.616Z,4.65
2022-09-23T12:25:37.737Z,5.03
2022-09-23T12:28:11.276Z,5.38
2022-09-23T12:30:38.819Z,5.17
2022-09-23T12:33:22.054Z,4.85
2022-09-23T12:35:49.548Z,5.53
2022-09-23T12:38:21.378Z,5.32
2022-09-23T12:40:48.737Z,5.40
2022-09-23T12:43:18.318Z,5.17
2022-09-23T12:45:45.595Z,5.28
2022-09-23T12:48:18.382Z,5.20
2022-09-23T12:50:49.303Z,5.47
2022-09-23T12:53:34.305Z,5.43
2022-09-23T12:56:01.686Z,4.87
2022-09-23T12:58:43.844Z,5.32
2022-09-23T13:01:22.999Z,4.88
2022-09-23T13:04:16.699Z,4.93
2022-09-23T13:06:57.871Z,5.32
2022-09-23T13:09:37.295Z,4.83
2022-09-23T13:12:08.833Z,5.13
2022-09-23T13:14:37.224Z,4.97
2022-09-23T13:17:04.796Z,5.10
2022-09-23T13:19:36.595Z,5.30
2022-09-23T13:22:11.066Z,4.90
2022-09-23T13:24:42.291Z,5.50
2022-09-23T13:27:20.215Z,5.18
2022-09-23T13:30:01.231Z,5.85
2022-09-23T13:32:38.234Z,5.38
2022-09-23T13:35:14.523Z,5.83
2022-09-23T13:37:47.541Z,5.15
2022-09-23T13:40:24.949Z,5.20
2022-09-23T13:42:59.394Z,4.47
2022-09-23T13:45:28.129Z,4.35
2022-09-23T13:48:01.666Z,4.03
2022-09-23T13:50:34.224Z,4.70
2022-09-23T13:53:07.543Z,4.80
2022-09-23T13:55:37.579Z,4.95
2022-09-23T13:58:21.008Z,4.32
2022-09-23T14:00:49.943Z,5.40
2022-09-23T14:03:38.468Z,6.25
2022-09-23T14:06:12.368Z,7.28
2022-09-23T14:08:46.137Z,6.25
2022-09-23T14:11:29.542Z,5.97
2022-09-23T14:13:57.921Z,6.73
2022-09-23T14:16:28.128Z,6.70
2022-09-23T14:19:00.115Z,7.53
2022-09-23T14:21:39.089Z,7.20
2022-09-23T14:24:20.995Z,9.65
2022-09-23T14:26:53.218Z,7.43
2022-09-23T14:29:26.186Z,7.45
2022-09-23T14:32:01.485Z,8.38
2022-09-23T14:34:53.075Z,8.20
2022-09-23T14:37:44.856Z,8.00
2022-09-23T14:40:39.930Z,9.00
2022-09-23T14:43:15.778Z,7.82
2022-09-23T14:45:50.446Z,8.00
2022-09-23T14:48:23.126Z,9.23
2022-09-23T14:50:54.500Z,8.02
2022-09-23T14:53:24.907Z,7.67
2022-09-23T14:56:06.787Z,7.75
2022-09-23T14:58:58.676Z,8.27
2022-09-23T15:01:32.136Z,7.57
2022-09-23T15:04:11.352Z,8.50
2022-09-23T15:06:42.141Z,8.90
2022-09-23T15:09:17.638Z,7.88
2022-09-23T15:11:44.586Z,12.90
2022-09-23T15:14:33.534Z,8.00
2022-09-23T15:17:01.295Z,7.90
2022-09-23T15:19:31.499Z,8.40
2022-09-23T15:21:58.687Z,7.50
2022-09-23T15:24:41.626Z,7.00
2022-09-23T15:27:26.191Z,7.13
2022-09-23T15:29:53.993Z,6.72
2022-09-23T15:32:22.186Z,7.50
2022-09-23T15:34:50.439Z,6.63
2022-09-23T15:37:17.771Z,10.93
2022-09-23T15:39:45.013Z,7.55
2022-09-23T15:42:11.976Z,6.88
2022-09-23T15:44:39.424Z,5.90
2022-09-23T15:47:07.450Z,6.38
2022-09-23T15:49:41.953Z,6.35
2022-09-23T15:52:12.162Z,6.55
2022-09-23T15:54:39.878Z,6.32
2022-09-23T15:57:06.677Z,6.60
2022-09-23T15:59:33.547Z,7.03
2022-09-23T16:02:05.874Z,6.70
2022-09-23T16:04:32.995Z,7.40
2022-09-23T16:07:01.161Z,7.53
2022-09-23T16:09:31.502Z,7.40
2022-09-23T16:12:01.646Z,8.25
2022-09-23T16:14:29.013Z,8.32
2022-09-23T16:16:56.274Z,8.35
2022-09-23T16:19:23.472Z,9.63
2022-09-23T16:21:50.482Z,9.67
2022-09-23T16:24:18.713Z,9.10
2022-09-23T16:26:48.132Z,9.35
2022-09-23T16:29:15.322Z,10.88
2022-09-23T16:31:42.653Z,9.90
2022-09-23T16:34:09.938Z,10.83
2022-09-23T16:36:42.191Z,10.27
2022-09-23T16:39:12.502Z,10.55
2022-09-23T16:41:40.143Z,10.52
2022-09-23T16:44:09.241Z,10.55
2022-09-23T16:46:37.045Z,10.77
2022-09-23T16:49:04.680Z,11.15
2022-09-23T16:51:38.257Z,11.90
2022-09-23T16:54:10.846Z,11.80
2022-09-23T16:56:41.842Z,11.68
2022-09-23T16:59:09.152Z,12.13
2022-09-23T17:01:55.053Z,12.63
2022-09-23T17:04:22.618Z,12.60
2022-09-23T17:06:51.365Z,21.70
2022-09-23T17:09:23.216Z,14.68
2022-09-23T17:12:04.472Z,13.33
2022-09-23T17:14:31.889Z,13.60
2022-09-23T17:16:59.307Z,13.60
2022-09-23T17:19:26.330Z,14.35
2022-09-23T17:21:53.837Z,14.68
2022-09-23T17:24:21.107Z,14.23
2022-09-23T17:26:52.617Z,13.45
2022-09-23T17:29:20.679Z,15.15
2022-09-23T17:31:47.897Z,14.77
2022-09-23T17:34:16.337Z,15.30
2022-09-23T17:36:43.957Z,14.43
2022-09-23T17:39:11.457Z,14.95
2022-09-23T17:41:39.220Z,14.98
2022-09-23T17:44:08.063Z,15.43
2022-09-23T17:46:35.260Z,15.95
2022-09-23T17:49:03.944Z,15.30
2022-09-23T17:51:31.383Z,15.55
2022-09-23T17:53:58.617Z,15.93
2022-09-23T17:56:26.901Z,16.95
2022-09-23T17:58:54.272Z,15.90
2022-09-23T18:01:23.713Z,16.80
2022-09-23T18:03:58.695Z,21.48
2022-09-23T18:06:28.628Z,17.35
2022-09-23T18:08:56.104Z,17.23
2022-09-23T18:11:25.101Z,13.98
2022-09-23T18:13:57.171Z,17.47
2022-09-23T18:16:26.455Z,16.60
2022-09-23T18:18:54.653Z,16.23
2022-09-23T18:21:22.821Z,17.92
2022-09-23T18:23:50.479Z,18.25
2022-09-23T18:26:19.379Z,16.73
2022-09-23T18:28:48.086Z,17.80
2022-09-23T18:31:17.268Z,18.05
2022-09-23T18:33:44.668Z,17.55
2022-09-23T18:36:11.935Z,17.50
2022-09-23T18:38:39.848Z,16.00
2022-09-23T18:41:07.189Z,14.27
2022-09-23T18:43:40.037Z,16.23
2022-09-23T18:46:13.118Z,16.90
2022-09-23T18:48:59.700Z,16.40
2022-09-23T18:51:31.870Z,15.13
2022-09-23T18:54:01.298Z,16.80
2022-09-23T18:56:33.576Z,15.77
2022-09-23T18:59:00.885Z,17.10
2022-09-23T19:01:28.712Z,16.92
2022-09-23T19:03:56.181Z,17.83
2022-09-23T19:06:23.718Z,15.65
2022-09-23T19:08:55.088Z,16.73
2022-09-23T19:11:23.787Z,17.75
2022-09-23T19:13:55.357Z,17.73
2022-09-23T19:16:23.413Z,15.10
2022-09-23T19:18:51.572Z,18.13
2022-09-23T19:21:20.771Z,17.55
2022-09-23T19:23:50.567Z,16.70
2022-09-23T19:26:20.492Z,16.58
2022-09-23T19:28:52.089Z,17.77
2022-09-23T19:31:23.000Z,18.35
2022-09-23T19:33:56.737Z,16.38
2022-09-23T19:36:32.201Z,16.27
2022-09-23T19:39:08.549Z,18.92
2022-09-23T19:41:35.746Z,19.13
2022-09-23T19:44:03.326Z,17.75
2022-09-23T19:46:32.460Z,15.50
2022-09-23T19:49:00.280Z,17.98
2022-09-23T19:51:28.247Z,14.98
2022-09-23T19:53:55.078Z,15.70
2022-09-23T19:56:22.444Z,17.63
2022-09-23T19:58:58.175Z,16.50
2022-09-23T20:01:29.368Z,18.88
2022-09-23T20:03:56.779Z,19.25
2022-09-23T20:06:23.601Z,19.23
2022-09-23T20:08:51.029Z,16.50
2022-09-23T20:11:27.601Z,18.27
2022-09-23T20:14:00.995Z,16.23
2022-09-23T20:16:32.155Z,16.58
2022-09-23T20:19:00.292Z,17.77
2022-09-23T20:21:29.201Z,13.45
2022-09-23T20:23:56.780Z,18.13
2022-09-23T20:26:42.473Z,17.60
2022-09-23T20:29:10.822Z,17.98
2022-09-23T20:31:40.432Z,16.70
2022-09-23T20:34:08.221Z,17.02
2022-09-23T20:36:36.220Z,18.25
2022-09-23T20:39:08.051Z,18.83
2022-09-23T20:41:38.057Z,18.38
2022-09-23T20:44:13.847Z,19.00
2022-09-23T20:46:47.568Z,18.02
2022-09-23T20:49:17.613Z,17.42
2022-09-23T20:51:45.147Z,18.25
2022-09-23T20:54:12.470Z,17.45
2022-09-23T20:56:39.627Z,17.93
2022-09-23T20:59:07.006Z,16.33
2022-09-23T21:01:35.451Z,17.85
2022-09-23T21:04:04.939Z,19.17
2022-09-23T21:06:32.350Z,18.35
2022-09-23T21:08:59.592Z,19.30
2022-09-23T21:11:27.286Z,15.60
2022-09-23T21:13:54.689Z,19.27
2022-09-23T21:16:22.898Z,17.85
2022-09-23T21:18:51.336Z,17.25
2022-09-23T21:21:19.733Z,17.60
2022-09-23T21:23:47.592Z,19.08
2022-09-23T21:26:21.632Z,18.02
2022-09-23T21:28:50.273Z,17.90
2022-09-23T21:31:23.161Z,20.13
2022-09-23T21:34:03.344Z,18.53
2022-09-23T21:36:37.010Z,18.27
2022-09-23T21:39:05.628Z,17.98
2022-09-23T21:41:33.488Z,18.38
2022-09-23T21:44:02.509Z,19.25
2022-09-23T21:46:29.798Z,17.83
2022-09-23T21:48:58.702Z,19.40
2022-09-23T21:51:27.877Z,18.63
2022-09-23T21:53:56.797Z,17.45
2022-09-23T21:56:29.454Z,18.17
2022-09-23T21:58:58.600Z,19.43
2022-09-23T22:01:28.141Z,17.75
2022-09-23T22:03:58.165Z,20.92
2022-09-23T22:06:27.454Z,20.20
2022-09-23T22:09:00.179Z,18.35
2022-09-23T22:11:48.425Z,21.60
2022-09-23T22:14:17.190Z,20.48
2022-09-23T22:16:44.847Z,23.27
2022-09-23T22:19:13.660Z,21.90
2022-09-23T22:21:41.971Z,22.95
2022-09-23T22:24:10.460Z,20.53
2022-09-23T22:26:44.622Z,21.95
2022-09-23T22:29:32.559Z,22.90
2022-09-23T22:32:19.921Z,19.55
2022-09-23T22:34:50.578Z,23.02
2022-09-23T22:37:28.917Z,23.80
2022-09-23T22:39:56.196Z,21.00
2022-09-23T22:42:23.154Z,22.23
2022-09-23T22:44:50.876Z,19.85
2022-09-23T22:47:19.838Z,22.42
2022-09-23T22:49:47.606Z,22.33
2022-09-23T22:52:20.774Z,23.05
2022-09-23T22:54:47.590Z,23.67
2022-09-23T22:57:15.278Z,23.52
2022-09-23T22:59:47.810Z,25.35
2022-09-23T23:02:16.577Z,22.77
2022-09-23T23:04:45.189Z,24.67
2022-09-23T23:07:19.897Z,18.38
2022-09-23T23:09:50.775Z,24.05
2022-09-23T23:12:19.881Z,24.27
2022-09-23T23:14:47.841Z,20.63
2022-09-23T23:17:15.060Z,24.55
2022-09-23T23:19:42.360Z,24.08
2022-09-23T23:22:09.198Z,23.83
2022-09-23T23:24:36.419Z,21.70
2022-09-23T23:27:03.583Z,24.80
2022-09-23T23:29:30.879Z,22.80
2022-09-23T23:31:58.249Z,22.73
2022-09-23T23:34:25.446Z,22.92
2022-09-23T23:36:56.655Z,24.95
2022-09-23T23:39:24.951Z,24.27
2022-09-23T23:41:56.110Z,20.77
2022-09-23T23:44:25.206Z,21.10
2022-09-23T23:46:52.833Z,20.98
2022-09-23T23:49:20.234Z,21.17
2022-09-23T23:51:47.895Z,19.87
2022-09-23T23:54:15.399Z,19.25
2022-09-23T23:56:42.723Z,19.10
2022-09-23T23:59:10.001Z,17.70
